Winona, MN

1:17 AM CST on February 23, 2017 (GMT -0600)
Near Watkins | | Change Station
Active Advisory: Winter Storm Watch

Elev 659 ft 44.05 °N, 91.63 °W | Updated 2 seconds ago

Overcast
Overcast
43.3 °F
Feels Like 43 °F
N
0.0
Wind Variable Wind from North
Gusts 6.0 mph

Today
High -- | Low -- °F
--% Chance of Precip.
Yesterday
High -- | Low -- °F
Precip. -- in
Pressure 29.76 in
Visibility 10.0 miles
Clouds Mostly Cloudy 2000 ft
Mostly Cloudy 3200 ft
Windchill 43 °F
Dew Point 38 °F
Humidity 80%
Rainfall 0.00 in
Snow Depth Not available.
6:52 AM 5:47 PM
Waning Crescent, 12% visible
METAR KONA 230712Z AUTO 32008KT 10SM BKN020 BKN032 05/01 A2976 RMK AO2
Pressure 29.76 in
Visibility 10.0 miles
Clouds Mostly Cloudy 2000 ft
Mostly Cloudy 3200 ft
Windchill 43 °F
Dew Point 38 °F
Humidity 80%
Rainfall 0.00 in
Snow Depth Not available.
6:52 AM 5:47 PM
Waning Crescent, 12% visible
METAR KONA 230712Z AUTO 32008KT 10SM BKN020 BKN032 05/01 A2976 RMK AO2

Get Your Daily Forecast Email!

Thanks for signing up!

Be on the lookout for a verification email in your inbox.

You'll start receiving the daily forecast at 8 AM.

×

10-Day Weather Forecast

Almanac

Astronomy

Feb. 23, 2017 Rise Set
Actual Time
Civil Twilight
Nautical Twilight
Astronomical Twilight
Moon
Length of Visible Light
Length of Day
Tomorrow will be .
, % of the Moon is Illuminated

Today's Extremes

State Highs State Lows

Community

WunderPhotos

Upload Photos

1,962,540 photos uploaded!

WunderBlog® & News

Nearby

Air Quality

  Air Quality AQ Index Pollutant
Not available.

Snow Depth

Station Depth Elevation

Earthquake Activity

City Distance Mag. Time & Date
Minimum magnitude displayed is 2.5.

Coastal Water Temperatures

Place Temperature

Stations

Nearby Weather Stations

Station Location Temp. Windchill Dew Point Humidity Wind Precip. Elev Updated Type
                   

Watches & Warnings

Winter Storm Watch
Issued: 8:48 PM CST Feb. 22, 2017 – National Weather Service

... Winter Storm Watch remains in effect from Thursday evening
through Friday evening...

* a wintry mix of snow, rain, and freezing rain are possible from
Thursday night through Friday night.

* Total snow accumulations of 5 to 10 inches and ice accumulations
up to 1/10 of an inch are possible.

* Snow and drifting snow may cause significant reductions in
visibility.

* The ice and snow could result in difficult travel conditions,
including during the morning commute on Friday.

Precautionary/preparedness actions...

A Winter Storm Watch means there is potential for significant
snow... sleet or ice accumulations that may impact travel.
Continue to monitor the latest forecasts.



Rogers